Time;durP1;ratioP1;P1;durP2;ratioP2;P2;SDS_P1;SDS_P2;PMS_P1;PMS_P2;Temp;Humidity;BMP_temperature;BMP_pressure;BME280_temperature;BME280_humidity;BME280_pressure;Samples;Min_cycle;Max_cycle;Signal;HPM_P1;HPM_P2
2021/10/04 00:00:30;;;;;;;11.45;7.75;;;13.10;99.90;;;;;;5081093;28;20466;-82
2021/10/04 00:02:56;;;;;;;12.52;9.35;;;13.00;99.90;;;;;;5080488;28;20016;-82
2021/10/04 00:05:22;;;;;;;10.50;7.30;;;13.10;99.90;;;;;;5080664;28;20027;-82
2021/10/04 00:07:47;;;;;;;11.27;8.52;;;13.10;99.90;;;;;;5081360;28;20055;-81
2021/10/04 00:10:17;;;;;;;16.77;9.00;;;13.10;99.90;;;;;;5083193;28;20024;-82
2021/10/04 00:12:44;;;;;;;9.68;8.13;;;13.10;99.90;;;;;;5080480;28;20016;-81
2021/10/04 00:15:12;;;;;;;11.70;8.38;;;13.10;99.90;;;;;;5084320;28;20489;-81
2021/10/04 00:17:38;;;;;;;11.48;7.90;;;13.10;99.90;;;;;;5077822;28;20065;-81
2021/10/04 00:20:07;;;;;;;13.20;8.77;;;13.00;99.90;;;;;;5081705;28;20023;-82
2021/10/04 00:22:33;;;;;;;11.00;8.30;;;13.00;99.90;;;;;;5084246;28;20020;-81
2021/10/04 00:24:58;;;;;;;14.45;8.43;;;12.90;99.90;;;;;;5085320;28;20024;-81
2021/10/04 00:27:24;;;;;;;11.02;7.45;;;13.00;99.90;;;;;;5084479;28;20039;-81
2021/10/04 00:29:50;;;;;;;15.63;9.15;;;12.90;99.90;;;;;;5084040;28;20397;-80
2021/10/04 00:32:16;;;;;;;11.98;8.85;;;12.90;99.90;;;;;;5082602;28;20056;-81
2021/10/04 00:34:41;;;;;;;10.80;7.93;;;12.90;99.90;;;;;;5084687;28;20028;-82
2021/10/04 00:37:07;;;;;;;10.35;8.05;;;12.90;99.90;;;;;;5083161;28;20020;-81
2021/10/04 00:39:33;;;;;;;12.35;7.50;;;12.90;99.90;;;;;;5078223;28;20035;-81
2021/10/04 00:42:00;;;;;;;12.85;8.25;;;12.80;99.90;;;;;;5081865;28;20048;-82
2021/10/04 00:44:26;;;;;;;12.00;8.23;;;12.80;99.90;;;;;;5078183;28;20122;-81
2021/10/04 00:46:52;;;;;;;17.73;8.20;;;12.80;99.90;;;;;;5079799;28;20020;-81
2021/10/04 00:49:18;;;;;;;17.17;10.80;;;12.90;99.90;;;;;;5080594;28;20024;-81
2021/10/04 00:51:44;;;;;;;13.55;8.98;;;12.80;99.90;;;;;;5084876;28;20027;-81
2021/10/04 00:54:09;;;;;;;12.18;10.00;;;12.90;99.90;;;;;;5075778;28;20020;-81
2021/10/04 00:56:35;;;;;;;11.88;9.43;;;12.80;99.90;;;;;;5081495;28;20533;-81
2021/10/04 00:59:02;;;;;;;12.13;7.75;;;12.80;99.90;;;;;;5082092;28;20024;-82
2021/10/04 01:01:28;;;;;;;11.95;8.10;;;12.80;99.90;;;;;;5077612;28;20088;-81
2021/10/04 01:03:59;;;;;;;11.52;7.70;;;12.80;99.90;;;;;;5086210;28;20028;-81
2021/10/04 01:06:26;;;;;;;11.43;7.88;;;12.80;99.90;;;;;;5085449;28;20465;-82
2021/10/04 01:08:52;;;;;;;13.85;10.45;;;12.80;99.90;;;;;;5079016;28;20032;-82
2021/10/04 01:11:18;;;;;;;9.15;7.90;;;12.70;99.90;;;;;;5086420;28;20024;-81
2021/10/04 01:13:43;;;;;;;12.25;8.93;;;12.70;99.90;;;;;;5085579;28;20027;-81
2021/10/04 01:16:09;;;;;;;15.02;10.07;;;12.70;99.90;;;;;;5081081;28;20095;-82
2021/10/04 01:18:35;;;;;;;11.73;8.10;;;12.70;99.90;;;;;;5079628;28;20031;-82
2021/10/04 01:21:02;;;;;;;10.10;7.65;;;12.60;99.90;;;;;;5083444;28;20530;-82
2021/10/04 01:23:28;;;;;;;10.15;7.53;;;12.50;99.90;;;;;;5075420;28;20020;-82
2021/10/04 01:25:55;;;;;;;10.60;8.82;;;12.50;99.90;;;;;;5079091;28;20504;-82
2021/10/04 01:28:21;;;;;;;16.55;8.27;;;12.40;99.90;;;;;;5076723;28;20036;-81
2021/10/04 01:30:47;;;;;;;12.10;8.40;;;12.40;99.90;;;;;;5076609;28;20043;-81
2021/10/04 01:33:12;;;;;;;11.73;8.02;;;12.30;99.90;;;;;;5082998;28;20477;-81
2021/10/04 01:35:38;;;;;;;10.98;7.72;;;12.20;99.90;;;;;;5082568;28;20497;-82
2021/10/04 01:38:04;;;;;;;11.00;8.40;;;12.20;99.90;;;;;;5081951;28;20032;-82
2021/10/04 01:40:30;;;;;;;11.85;7.78;;;12.10;99.90;;;;;;5083225;28;20469;-82
2021/10/04 01:42:55;;;;;;;10.85;7.93;;;12.10;99.90;;;;;;5079159;28;20024;-82
2021/10/04 01:45:23;;;;;;;11.48;8.48;;;12.00;99.90;;;;;;5085036;28;20024;-81
2021/10/04 01:47:50;;;;;;;12.05;8.13;;;12.00;99.90;;;;;;5081801;28;20036;-82
2021/10/04 01:50:17;;;;;;;11.63;8.27;;;12.00;99.90;;;;;;5086423;28;20469;-82
2021/10/04 01:52:43;;;;;;;11.38;8.23;;;12.00;99.90;;;;;;5079306;28;20033;-82
2021/10/04 01:55:10;;;;;;;11.32;8.80;;;11.90;99.90;;;;;;5079540;28;20373;-82
2021/10/04 01:57:36;;;;;;;10.43;7.95;;;11.90;99.90;;;;;;5086161;28;20020;-82
2021/10/04 02:00:05;;;;;;;11.52;8.27;;;11.90;99.90;;;;;;5080804;28;20119;-81
2021/10/04 02:02:31;;;;;;;14.32;8.55;;;11.90;99.90;;;;;;5078639;28;20021;-81
2021/10/04 02:04:57;;;;;;;11.13;8.75;;;11.80;99.90;;;;;;5080583;28;20119;-82
2021/10/04 02:07:22;;;;;;;11.68;7.68;;;11.80;99.90;;;;;;5085512;28;20035;-81
2021/10/04 02:09:48;;;;;;;11.80;8.75;;;11.80;99.90;;;;;;5082352;28;20508;-81
2021/10/04 02:12:17;;;;;;;12.50;8.80;;;11.70;99.90;;;;;;5076587;28;20437;-82
2021/10/04 02:14:43;;;;;;;10.23;8.57;;;11.60;99.90;;;;;;5079199;28;20083;-81
2021/10/04 02:17:09;;;;;;;11.63;8.98;;;11.60;99.90;;;;;;5079026;28;20027;-81
2021/10/04 02:19:35;;;;;;;12.25;9.07;;;11.60;99.90;;;;;;5079819;28;20397;-81
2021/10/04 02:22:00;;;;;;;13.18;9.27;;;11.50;99.90;;;;;;5083837;28;20024;-82
2021/10/04 02:24:27;;;;;;;13.00;8.70;;;11.40;99.90;;;;;;5081725;28;20112;-82
2021/10/04 02:26:53;;;;;;;12.85;9.13;;;11.30;99.90;;;;;;5081648;28;20019;-82
2021/10/04 02:29:19;;;;;;;12.75;10.07;;;11.30;99.90;;;;;;5081700;28;20040;-82
2021/10/04 02:31:44;;;;;;;12.82;9.23;;;11.30;99.90;;;;;;5086635;28;20537;-82
2021/10/04 02:34:10;;;;;;;12.48;9.10;;;11.20;99.90;;;;;;5086542;28;20066;-81
2021/10/04 02:36:36;;;;;;;13.82;9.73;;;11.20;99.90;;;;;;5085299;28;20081;-81
2021/10/04 02:39:01;;;;;;;11.73;8.90;;;11.10;99.90;;;;;;5079538;28;20107;-81
2021/10/04 02:41:27;;;;;;;15.73;9.80;;;11.10;99.90;;;;;;5088032;28;20166;-81
2021/10/04 02:43:53;;;;;;;14.68;9.73;;;11.10;99.90;;;;;;5082264;28;20059;-80
2021/10/04 02:46:18;;;;;;;14.25;9.60;;;11.00;99.90;;;;;;5085641;28;20409;-81
2021/10/04 02:48:44;;;;;;;12.07;9.20;;;11.00;99.90;;;;;;5084729;28;20410;-81
2021/10/04 02:51:10;;;;;;;10.85;9.57;;;10.90;99.90;;;;;;5081826;28;20032;-81
2021/10/04 02:53:36;;;;;;;17.23;9.20;;;10.90;99.90;;;;;;5086443;28;20095;-81
2021/10/04 02:56:01;;;;;;;11.23;8.95;;;10.90;99.90;;;;;;5081618;28;20023;-81
2021/10/04 02:58:27;;;;;;;14.40;9.85;;;10.80;99.90;;;;;;5078100;28;20110;-81
2021/10/04 03:00:53;;;;;;;13.20;10.02;;;10.80;99.90;;;;;;5082976;28;20081;-81
2021/10/04 03:03:18;;;;;;;13.55;10.25;;;10.80;99.90;;;;;;5081199;28;20065;-81
2021/10/04 03:05:44;;;;;;;11.88;9.82;;;10.70;99.90;;;;;;5080877;28;20060;-81
2021/10/04 03:08:10;;;;;;;13.38;10.23;;;10.70;99.90;;;;;;5083959;28;20090;-81
2021/10/04 03:10:36;;;;;;;11.55;9.10;;;10.70;99.90;;;;;;5080528;28;20021;-81
2021/10/04 03:13:02;;;;;;;13.85;10.15;;;10.60;99.90;;;;;;5086579;28;20115;-81
2021/10/04 03:15:29;;;;;;;15.60;10.07;;;10.50;99.90;;;;;;5079488;28;20032;-81
2021/10/04 03:17:55;;;;;;;17.20;9.43;;;10.50;99.90;;;;;;5082484;28;20025;-81
2021/10/04 03:20:21;;;;;;;15.13;10.27;;;10.60;99.90;;;;;;5082489;28;20027;-81
2021/10/04 03:22:46;;;;;;;11.82;8.95;;;10.40;99.90;;;;;;5090046;28;20457;-81
2021/10/04 03:25:12;;;;;;;14.02;10.20;;;10.40;99.90;;;;;;5084454;28;20460;-81
2021/10/04 03:27:38;;;;;;;19.90;10.02;;;10.40;99.90;;;;;;5084440;28;20078;-81
2021/10/04 03:30:05;;;;;;;17.73;10.60;;;10.40;99.90;;;;;;5081625;28;20028;-81
2021/10/04 03:32:30;;;;;;;13.40;9.40;;;10.40;99.90;;;;;;5080878;28;20065;-82
2021/10/04 03:34:56;;;;;;;15.95;10.07;;;10.30;99.90;;;;;;5085286;28;20028;-81
2021/10/04 03:37:22;;;;;;;17.42;10.00;;;10.30;99.90;;;;;;5080722;28;20470;-81
2021/10/04 03:39:48;;;;;;;18.40;10.25;;;10.30;99.90;;;;;;5084976;28;20106;-81
2021/10/04 03:42:14;;;;;;;14.48;9.85;;;10.30;99.90;;;;;;5082050;28;20017;-81
2021/10/04 03:44:40;;;;;;;14.82;10.40;;;10.30;99.90;;;;;;5084107;28;20020;-81
2021/10/04 03:47:05;;;;;;;12.40;9.88;;;10.30;99.90;;;;;;5080791;28;20016;-81
2021/10/04 03:49:31;;;;;;;16.30;11.07;;;10.30;99.90;;;;;;5081813;28;20080;-81
2021/10/04 03:51:57;;;;;;;13.00;9.15;;;10.30;99.90;;;;;;5079888;28;20389;-82
2021/10/04 03:54:23;;;;;;;13.85;9.75;;;10.30;99.90;;;;;;5084046;28;20020;-81
2021/10/04 03:56:48;;;;;;;13.30;9.45;;;10.20;99.90;;;;;;5084631;28;20008;-81
2021/10/04 03:59:14;;;;;;;14.80;10.38;;;10.20;99.90;;;;;;5079671;28;20028;-81
2021/10/04 04:01:39;;;;;;;13.60;9.63;;;10.20;99.90;;;;;;5082489;28;20103;-82
2021/10/04 04:04:05;;;;;;;15.75;10.57;;;10.20;99.90;;;;;;5078555;28;20020;-82
2021/10/04 04:06:31;;;;;;;13.30;10.05;;;10.30;99.90;;;;;;5084503;28;20389;-82
2021/10/04 04:08:56;;;;;;;20.20;13.02;;;10.30;99.90;;;;;;5085535;28;20032;-82
2021/10/04 04:11:22;;;;;;;28.90;15.30;;;10.30;99.90;;;;;;5084237;28;20020;-81
2021/10/04 04:13:47;;;;;;;14.95;11.98;;;10.30;99.90;;;;;;5080447;28;20035;-82
2021/10/04 04:16:13;;;;;;;16.70;11.50;;;10.30;99.90;;;;;;5079898;28;20035;-82
2021/10/04 04:18:39;;;;;;;17.17;12.13;;;10.30;99.90;;;;;;5081400;28;20070;-80
2021/10/04 04:21:04;;;;;;;14.63;9.98;;;10.30;99.90;;;;;;5077798;28;20388;-81
2021/10/04 04:23:30;;;;;;;14.30;9.93;;;10.30;99.90;;;;;;5082319;28;20444;-81
2021/10/04 04:25:56;;;;;;;13.85;9.88;;;10.40;99.90;;;;;;5080763;28;20529;-81
2021/10/04 04:28:22;;;;;;;14.35;9.65;;;10.40;99.90;;;;;;5079887;28;20035;-82
2021/10/04 04:30:48;;;;;;;12.90;8.65;;;10.40;99.90;;;;;;5079858;28;20481;-81
2021/10/04 04:33:14;;;;;;;15.93;9.02;;;10.40;99.90;;;;;;5081379;28;20045;-82
2021/10/04 04:35:40;;;;;;;13.65;10.32;;;10.50;99.90;;;;;;5082971;28;20117;-82
2021/10/04 04:38:06;;;;;;;13.32;8.95;;;10.40;99.90;;;;;;5078246;28;20016;-82
2021/10/04 04:40:31;;;;;;;13.40;10.20;;;10.50;99.90;;;;;;5087141;28;20580;-82
2021/10/04 04:42:57;;;;;;;14.43;9.75;;;10.50;99.90;;;;;;5082328;28;20500;-81
2021/10/04 04:45:23;;;;;;;12.13;9.15;;;10.50;99.90;;;;;;5080245;28;20025;-81
2021/10/04 04:47:49;;;;;;;14.52;8.82;;;10.50;99.90;;;;;;5078846;28;20028;-81
2021/10/04 04:50:18;;;;;;;13.55;9.48;;;10.60;99.90;;;;;;5084837;28;20020;-81
2021/10/04 04:52:43;;;;;;;11.88;9.35;;;10.50;99.90;;;;;;5083824;28;20024;-81
2021/10/04 04:55:10;;;;;;;12.82;9.15;;;10.60;99.90;;;;;;5084559;28;20104;-81
2021/10/04 04:57:36;;;;;;;17.77;10.45;;;10.60;99.90;;;;;;5086496;28;20118;-82
2021/10/04 05:00:06;;;;;;;17.17;10.48;;;10.60;99.90;;;;;;5078117;28;20078;-81
2021/10/04 05:02:36;;;;;;;16.30;10.40;;;10.60;99.90;;;;;;5084189;28;20048;-81
2021/10/04 05:05:05;;;;;;;19.02;10.88;;;10.50;99.90;;;;;;5082077;28;20032;-81
2021/10/04 05:07:31;;;;;;;14.05;10.50;;;10.60;99.90;;;;;;5081477;28;20016;-82
2021/10/04 05:09:56;;;;;;;16.85;10.13;;;10.60;99.90;;;;;;5081507;28;20031;-81
2021/10/04 05:12:22;;;;;;;14.70;9.80;;;10.50;99.90;;;;;;5074500;28;20025;-82
2021/10/04 05:14:48;;;;;;;14.63;9.52;;;10.60;99.90;;;;;;5079835;28;20020;-82
2021/10/04 05:17:13;;;;;;;13.50;9.00;;;10.60;99.90;;;;;;5080325;28;20050;-82
2021/10/04 05:19:39;;;;;;;18.92;9.40;;;10.60;99.90;;;;;;5086225;28;20519;-81
2021/10/04 05:22:05;;;;;;;14.63;9.98;;;10.60;99.90;;;;;;5079504;28;20055;-82
2021/10/04 05:24:33;;;;;;;11.70;8.93;;;10.60;99.90;;;;;;5081596;28;20059;-81
2021/10/04 05:26:59;;;;;;;14.00;8.82;;;10.50;99.90;;;;;;5078520;28;20028;-82
2021/10/04 05:29:28;;;;;;;14.55;10.00;;;10.50;99.90;;;;;;5077901;28;20040;-81
2021/10/04 05:31:54;;;;;;;16.50;10.15;;;10.50;99.90;;;;;;5080768;28;20062;-83
2021/10/04 05:34:20;;;;;;;15.00;9.50;;;10.60;99.90;;;;;;5079672;28;20427;-81
2021/10/04 05:36:46;;;;;;;13.13;9.98;;;10.60;99.90;;;;;;5077015;28;20027;-83
2021/10/04 05:39:12;;;;;;;16.13;9.85;;;10.60;99.90;;;;;;5082054;28;20384;-82
2021/10/04 05:41:37;;;;;;;15.63;10.52;;;10.70;99.90;;;;;;5082675;28;20019;-82
2021/10/04 05:44:04;;;;;;;15.68;11.07;;;10.80;99.90;;;;;;5084333;28;20024;-82
2021/10/04 05:46:30;;;;;;;13.05;8.55;;;10.90;99.90;;;;;;5087077;28;20508;-82
2021/10/04 05:48:56;;;;;;;14.88;9.32;;;11.00;99.90;;;;;;5078444;28;20063;-83
2021/10/04 05:51:21;;;;;;;17.10;10.23;;;11.10;99.90;;;;;;5081473;28;20044;-83
2021/10/04 05:53:47;;;;;;;14.43;9.98;;;11.20;99.90;;;;;;5085231;28;20080;-83
2021/10/04 05:56:13;;;;;;;14.27;10.20;;;11.30;99.90;;;;;;5082746;28;20117;-83
2021/10/04 05:58:39;;;;;;;11.20;9.13;;;11.40;99.90;;;;;;5100541;28;20044;-83
2021/10/04 06:01:05;;;;;;;18.95;10.20;;;11.50;99.90;;;;;;5076716;28;20013;-83
2021/10/04 06:03:31;;;;;;;12.07;9.82;;;11.60;99.90;;;;;;5074774;28;20033;-83
2021/10/04 06:05:57;;;;;;;16.80;9.55;;;11.60;99.90;;;;;;5082621;28;20012;-82
2021/10/04 06:08:22;;;;;;;16.42;9.35;;;11.70;99.90;;;;;;5080846;28;20047;-82
2021/10/04 06:10:48;;;;;;;12.73;8.00;;;11.70;99.90;;;;;;5080203;28;20024;-82
2021/10/04 06:13:14;;;;;;;15.00;9.98;;;11.80;99.90;;;;;;5081912;28;20070;-82
2021/10/04 06:15:40;;;;;;;16.50;9.60;;;11.90;99.90;;;;;;5078892;28;20393;-80
2021/10/04 06:18:08;;;;;;;17.10;11.23;;;12.00;99.90;;;;;;5081000;28;20040;-82
2021/10/04 06:20:34;;;;;;;23.83;12.18;;;12.10;99.90;;;;;;5082739;28;20028;-82
2021/10/04 06:22:59;;;;;;;27.27;12.27;;;12.30;99.90;;;;;;5092712;28;20074;-80
2021/10/04 06:25:25;;;;;;;18.90;10.30;;;12.50;99.90;;;;;;5090764;28;20024;-82
2021/10/04 06:27:54;;;;;;;13.23;9.98;;;12.60;99.90;;;;;;5072316;28;20032;-82
2021/10/04 06:30:20;;;;;;;16.05;10.45;;;12.90;99.90;;;;;;5071174;28;20542;-82
2021/10/04 06:32:46;;;;;;;11.30;9.60;;;13.10;99.90;;;;;;5073686;28;20017;-82
2021/10/04 06:35:12;;;;;;;12.15;9.23;;;13.40;99.90;;;;;;5077722;28;20055;-82
2021/10/04 06:37:37;;;;;;;12.98;8.38;;;13.60;99.90;;;;;;5074494;28;20508;-82
2021/10/04 06:40:04;;;;;;;10.00;8.18;;;13.80;99.90;;;;;;5077227;28;20074;-82
2021/10/04 06:42:29;;;;;;;15.50;9.30;;;14.10;99.90;;;;;;5080842;28;20020;-82
2021/10/04 06:44:56;;;;;;;15.57;9.40;;;14.30;99.90;;;;;;5076114;28;20470;-82
2021/10/04 06:47:23;;;;;;;12.07;9.52;;;14.60;99.90;;;;;;5074161;28;20017;-82
2021/10/04 06:49:48;;;;;;;15.10;9.02;;;14.80;99.90;;;;;;5083927;28;20036;-82
2021/10/04 06:52:14;;;;;;;10.60;8.50;;;15.00;99.90;;;;;;5077917;28;20535;-82
2021/10/04 06:54:40;;;;;;;14.10;8.95;;;15.20;99.90;;;;;;5083874;28;20042;-82
2021/10/04 06:57:05;;;;;;;12.50;9.30;;;15.40;99.90;;;;;;5078091;28;20104;-82
2021/10/04 06:59:32;;;;;;;13.93;8.23;;;15.60;99.90;;;;;;5077984;28;20040;-82
2021/10/04 07:01:58;;;;;;;13.00;7.90;;;15.80;99.90;;;;;;5076255;28;20025;-82
2021/10/04 07:04:24;;;;;;;18.27;8.38;;;15.90;99.90;;;;;;5079203;28;20082;-82
2021/10/04 07:06:50;;;;;;;19.15;9.13;;;16.10;99.90;;;;;;5078623;28;20367;-83
2021/10/04 07:09:15;;;;;;;16.35;9.52;;;16.20;99.90;;;;;;5079229;28;20024;-83
2021/10/04 07:11:41;;;;;;;15.20;9.65;;;16.30;99.90;;;;;;5085958;28;20028;-83
2021/10/04 07:14:07;;;;;;;18.33;9.95;;;16.50;99.90;;;;;;5082414;28;20043;-82
2021/10/04 07:16:32;;;;;;;12.70;7.65;;;16.60;99.90;;;;;;5079575;28;20028;-83
2021/10/04 07:19:00;;;;;;;17.05;8.80;;;16.70;99.90;;;;;;5081917;28;20381;-82
2021/10/04 07:21:25;;;;;;;10.32;8.45;;;16.90;99.90;;;;;;5085890;28;20015;-83
2021/10/04 07:23:51;;;;;;;12.70;9.10;;;17.00;99.90;;;;;;5084204;28;20548;-83
2021/10/04 07:26:17;;;;;;;8.73;7.38;;;17.10;99.90;;;;;;5082380;28;20052;-83
2021/10/04 07:28:43;;;;;;;10.27;7.93;;;17.20;99.10;;;;;;5082239;28;20036;-83
2021/10/04 07:31:09;;;;;;;13.57;8.05;;;17.40;99.30;;;;;;5083988;28;20043;-83
2021/10/04 07:33:34;;;;;;;10.18;7.80;;;17.50;97.40;;;;;;5081810;28;20111;-83
2021/10/04 07:36:02;;;;;;;11.52;8.25;;;17.60;95.10;;;;;;5083347;28;20546;-83
2021/10/04 07:38:28;;;;;;;13.40;7.70;;;17.80;93.90;;;;;;5079501;28;20012;-83
2021/10/04 07:40:54;;;;;;;9.52;7.57;;;17.90;93.80;;;;;;5086560;28;20066;-83
2021/10/04 07:43:19;;;;;;;10.00;8.50;;;18.00;93.80;;;;;;5086248;28;20421;-83
2021/10/04 07:45:45;;;;;;;18.08;12.68;;;18.10;93.10;;;;;;5084854;28;20016;-83
2021/10/04 07:48:12;;;;;;;12.07;8.23;;;18.20;92.00;;;;;;5081372;28;20028;-83
2021/10/04 07:50:38;;;;;;;12.27;8.02;;;18.20;88.40;;;;;;5087656;28;20017;-83
2021/10/04 07:53:03;;;;;;;11.90;7.72;;;18.30;88.90;;;;;;5088447;28;20028;-83
2021/10/04 07:55:29;;;;;;;12.45;7.75;;;18.40;88.20;;;;;;5080012;28;20048;-83
2021/10/04 07:57:54;;;;;;;10.68;7.72;;;18.50;89.20;;;;;;5079619;28;20038;-83
2021/10/04 08:00:21;;;;;;;9.45;7.63;;;18.60;88.00;;;;;;5081173;28;20083;-83
2021/10/04 08:02:47;;;;;;;10.15;6.95;;;18.70;87.20;;;;;;5087355;28;20024;-83
2021/10/04 08:05:13;;;;;;;10.10;7.22;;;18.80;84.70;;;;;;5078814;28;20030;-82
2021/10/04 08:07:40;;;;;;;9.05;7.65;;;18.80;82.50;;;;;;5078483;28;20116;-83
2021/10/04 08:10:08;;;;;;;9.55;7.88;;;18.80;84.20;;;;;;5084559;28;20031;-83
2021/10/04 08:12:33;;;;;;;8.38;6.82;;;18.80;81.60;;;;;;5083268;28;20020;-83
2021/10/04 08:14:59;;;;;;;8.77;7.00;;;18.90;81.20;;;;;;5085455;28;20037;-83
2021/10/04 08:17:26;;;;;;;9.82;7.72;;;19.00;79.90;;;;;;5083875;28;20054;-83
2021/10/04 08:19:52;;;;;;;10.13;7.43;;;19.10;81.50;;;;;;5083433;28;20362;-83
2021/10/04 08:22:18;;;;;;;14.88;7.60;;;19.10;77.20;;;;;;5084583;28;20054;-83
2021/10/04 08:24:44;;;;;;;9.82;7.55;;;19.10;80.40;;;;;;5081867;28;20052;-83
2021/10/04 08:27:09;;;;;;;10.55;7.30;;;19.20;80.30;;;;;;5078864;28;20044;-83
2021/10/04 08:29:35;;;;;;;10.50;7.38;;;19.20;77.40;;;;;;5082717;28;20036;-83
2021/10/04 08:32:02;;;;;;;10.23;7.57;;;19.20;78.10;;;;;;5083344;28;20089;-84
2021/10/04 08:34:28;;;;;;;13.30;7.32;;;19.30;77.70;;;;;;5078253;28;20032;-83
2021/10/04 08:36:54;;;;;;;12.82;8.68;;;19.30;77.20;;;;;;5083478;28;20500;-81
2021/10/04 08:39:19;;;;;;;12.63;8.00;;;19.30;77.80;;;;;;5084857;28;20127;-81
2021/10/04 08:41:45;;;;;;;9.32;7.13;;;19.40;75.80;;;;;;5082229;28;20469;-80
2021/10/04 08:44:13;;;;;;;13.77;8.45;;;19.40;75.10;;;;;;5078472;28;20469;-81
2021/10/04 08:46:46;;;;;;;9.95;6.57;;;19.50;74.60;;;;;;5080598;28;20393;-81
2021/10/04 08:49:12;;;;;;;;;;;19.50;73.80;;;;;;5082965;28;20024;-81
2021/10/04 08:51:38;;;;;;;9.75;6.72;;;19.60;75.10;;;;;;5083185;28;19912;-81
2021/10/04 08:54:06;;;;;;;9.70;7.35;;;19.60;73.90;;;;;;5079155;28;20013;-81
2021/10/04 08:56:33;;;;;;;10.00;7.68;;;19.70;74.40;;;;;;5079612;28;20047;-81
2021/10/04 08:58:58;;;;;;;9.13;7.72;;;19.70;72.60;;;;;;5078043;28;20023;-81
2021/10/04 09:01:25;;;;;;;10.07;7.03;;;19.80;73.70;;;;;;5080459;28;20115;-81
2021/10/04 09:03:57;;;;;;;10.23;7.30;;;19.80;73.10;;;;;;5080546;28;20077;-81
2021/10/04 09:06:36;;;;;;;11.07;7.15;;;19.90;76.10;;;;;;5080395;28;20017;-81
2021/10/04 09:09:10;;;;;;;9.80;6.95;;;19.90;74.10;;;;;;5080348;28;20036;-81
2021/10/04 09:11:45;;;;;;;9.60;7.53;;;19.90;72.80;;;;;;5082565;28;20020;-81
2021/10/04 09:14:15;;;;;;;10.00;7.75;;;19.90;72.90;;;;;;5079052;28;20016;-81
2021/10/04 09:17:01;;;;;;;9.40;7.35;;;19.80;72.10;;;;;;5079966;28;20016;-81
2021/10/04 09:19:42;;;;;;;10.40;7.05;;;19.90;73.20;;;;;;5078892;28;20032;-81
2021/10/04 09:22:16;;;;;;;10.07;6.53;;;20.00;72.00;;;;;;5081810;28;20492;-81
2021/10/04 09:24:59;;;;;;;10.55;6.53;;;20.00;71.90;;;;;;5080941;28;20484;-81
2021/10/04 09:27:38;;;;;;;8.63;6.85;;;20.00;71.70;;;;;;5079859;28;20024;-81
2021/10/04 09:30:06;;;;;;;9.45;6.47;;;20.00;72.10;;;;;;5075966;28;20035;-81
2021/10/04 09:32:38;;;;;;;8.10;6.40;;;20.20;72.60;;;;;;5081368;28;20096;-81
2021/10/04 09:35:24;;;;;;;7.43;6.72;;;20.10;70.90;;;;;;5082812;28;20069;-81
2021/10/04 09:37:58;;;;;;;11.43;6.85;;;20.20;72.00;;;;;;5080103;28;20024;-81
2021/10/04 09:40:40;;;;;;;9.20;6.22;;;20.30;73.00;;;;;;5078920;28;20659;-81
2021/10/04 09:43:26;;;;;;;7.78;5.60;;;20.30;70.60;;;;;;5079463;28;20373;-81
2021/10/04 09:45:59;;;;;;;8.27;6.30;;;20.30;71.20;;;;;;5096053;28;20029;-81
2021/10/04 09:48:24;;;;;;;12.88;7.13;;;20.40;74.30;;;;;;5085448;28;20032;-81
2021/10/04 09:50:51;;;;;;;7.63;6.43;;;20.50;72.70;;;;;;5082959;28;20020;-82
2021/10/04 09:53:16;;;;;;;10.20;6.50;;;20.50;71.80;;;;;;5076998;28;20508;-81
2021/10/04 09:55:45;;;;;;;10.43;6.88;;;20.50;70.70;;;;;;5078853;28;20036;-82
2021/10/04 09:58:14;;;;;;;7.97;6.32;;;20.60;71.60;;;;;;5076996;28;20086;-81
2021/10/04 10:00:52;;;;;;;6.80;6.10;;;20.60;70.10;;;;;;5078943;28;20387;-81
2021/10/04 10:03:23;;;;;;;9.57;6.03;;;20.70;72.30;;;;;;5079756;28;20012;-81
2021/10/04 10:05:53;;;;;;;9.60;7.07;;;20.80;70.60;;;;;;5079387;28;20012;-81
2021/10/04 10:08:21;;;;;;;6.68;5.95;;;20.80;71.10;;;;;;5084038;28;20021;-81
2021/10/04 10:10:49;;;;;;;9.10;6.68;;;20.80;69.70;;;;;;5080114;28;20473;-81
2021/10/04 10:13:17;;;;;;;7.10;6.20;;;20.80;68.90;;;;;;5077784;28;20234;-81
2021/10/04 10:16:08;;;;;;;7.63;6.32;;;20.80;68.80;;;;;;5082999;28;20036;-82
2021/10/04 10:18:52;;;;;;;8.27;6.97;;;20.90;69.10;;;;;;5072350;28;20036;-81
2021/10/04 10:21:26;;;;;;;10.13;7.00;;;20.90;70.20;;;;;;5078446;28;20013;-81
2021/10/04 10:23:59;;;;;;;7.40;6.00;;;20.90;70.80;;;;;;5079867;28;20051;-81
2021/10/04 10:26:33;;;;;;;;;;;20.80;68.50;;;;;;5079545;28;20013;-81
2021/10/04 10:29:19;;;;;;;11.80;7.20;;;20.90;71.20;;;;;;5079133;28;19998;-81
2021/10/04 10:31:51;;;;;;;6.95;5.82;;;20.90;69.30;;;;;;5077995;28;20077;-81
2021/10/04 10:34:35;;;;;;;8.90;5.95;;;20.90;69.50;;;;;;5086252;28;20019;-81
2021/10/04 10:37:16;;;;;;;9.23;5.97;;;20.90;70.60;;;;;;5081246;28;20111;-81
2021/10/04 10:39:56;;;;;;;10.68;7.70;;;20.90;69.00;;;;;;5080806;28;20058;-81
2021/10/04 10:42:36;;;;;;;11.00;6.90;;;20.90;69.80;;;;;;5085688;28;20107;-81
2021/10/04 10:45:10;;;;;;;8.00;5.47;;;21.00;71.00;;;;;;5088204;28;20024;-81
2021/10/04 10:47:36;;;;;;;9.30;5.53;;;21.00;69.20;;;;;;5082649;28;20616;-81
2021/10/04 10:50:30;;;;;;;9.43;6.55;;;21.10;69.10;;;;;;5084878;28;20032;-81
2021/10/04 10:52:56;;;;;;;6.93;5.60;;;21.10;69.10;;;;;;5089996;28;20048;-81
2021/10/04 10:55:21;;;;;;;10.90;6.50;;;21.10;68.00;;;;;;5083080;28;20071;-81
2021/10/04 10:57:59;;;;;;;7.38;6.15;;;21.00;67.40;;;;;;5087479;28;20028;-81
2021/10/04 11:00:48;;;;;;;7.82;5.95;;;21.00;67.50;;;;;;5087163;28;20023;-81
2021/10/04 11:03:22;;;;;;;8.32;7.32;;;21.00;68.70;;;;;;5086072;28;20467;-81
2021/10/04 11:06:03;;;;;;;7.10;6.40;;;21.10;69.70;;;;;;5083155;28;20025;-82
2021/10/04 11:08:28;;;;;;;6.88;6.13;;;21.10;67.50;;;;;;5085903;28;20028;-81
2021/10/04 11:10:57;;;;;;;6.70;5.93;;;21.20;68.20;;;;;;5084919;28;20477;-82
2021/10/04 11:13:40;;;;;;;9.07;6.22;;;21.20;68.40;;;;;;5086741;28;20073;-81
2021/10/04 11:16:06;;;;;;;9.52;6.80;;;21.30;69.70;;;;;;5081462;28;20340;-81
2021/10/04 11:18:46;;;;;;;6.65;5.93;;;21.30;68.10;;;;;;5079658;28;20093;-81
2021/10/04 11:21:18;;;;;;;13.07;6.40;;;21.40;68.50;;;;;;5087813;28;20069;-82
2021/10/04 11:23:51;;;;;;;7.72;6.55;;;21.40;67.90;;;;;;5079559;28;20099;-81
2021/10/04 11:26:19;;;;;;;12.90;6.63;;;21.40;68.00;;;;;;5084095;28;20511;-82
2021/10/04 11:28:48;;;;;;;7.53;5.82;;;21.40;68.80;;;;;;5083238;28;20111;-81
2021/10/04 11:31:22;;;;;;;7.00;6.30;;;21.50;69.40;;;;;;5080789;28;20472;-81
2021/10/04 11:33:56;;;;;;;8.05;6.15;;;21.40;67.90;;;;;;5099725;28;20016;-81
2021/10/04 11:36:24;;;;;;;8.38;6.50;;;21.50;68.10;;;;;;5082095;28;20016;-81
2021/10/04 11:38:58;;;;;;;9.45;6.55;;;21.50;68.90;;;;;;5082666;28;20028;-81
2021/10/04 11:42:03;;;;;;;11.00;6.78;;;21.60;69.10;;;;;;5081406;28;20346;-82
2021/10/04 11:44:30;;;;;;;8.90;7.18;;;21.60;67.50;;;;;;5055901;28;20036;-80
2021/10/04 11:47:03;;;;;;;9.80;6.30;;;21.60;67.80;;;;;;5078686;28;20028;-80
2021/10/04 11:49:34;;;;;;;10.55;6.50;;;21.60;67.80;;;;;;5086360;28;20062;-80
2021/10/04 11:52:05;;;;;;;9.80;6.78;;;21.60;68.10;;;;;;5086352;28;20086;-81
2021/10/04 11:54:45;;;;;;;11.20;6.75;;;21.60;68.60;;;;;;5080877;28;20024;-80
2021/10/04 11:57:19;;;;;;;9.57;6.70;;;21.60;67.40;;;;;;5082805;28;20016;-81
2021/10/04 11:59:57;;;;;;;13.55;6.63;;;21.70;70.10;;;;;;5081684;28;20038;-81
2021/10/04 12:02:26;;;;;;;6.95;6.25;;;21.70;69.70;;;;;;5081518;28;20023;-80
2021/10/04 12:05:06;;;;;;;14.13;7.32;;;21.70;66.40;;;;;;5081618;28;20035;-80
2021/10/04 12:07:32;;;;;;;9.95;6.22;;;21.70;67.30;;;;;;5082025;28;20094;-80
2021/10/04 12:09:58;;;;;;;9.63;7.05;;;21.70;67.10;;;;;;5083132;28;20032;-80
2021/10/04 12:12:33;;;;;;;10.95;7.15;;;21.80;69.80;;;;;;5086689;28;20032;-80
2021/10/04 12:14:59;;;;;;;7.45;6.53;;;21.90;68.10;;;;;;5085371;28;20034;-80
2021/10/04 12:17:25;;;;;;;15.73;7.40;;;21.80;65.50;;;;;;5081712;28;20044;-80
2021/10/04 12:19:50;;;;;;;11.05;6.90;;;21.80;68.30;;;;;;5082126;28;20048;-81
2021/10/04 12:22:35;;;;;;;8.82;7.82;;;21.90;69.20;;;;;;5088867;28;20012;-82
2021/10/04 12:25:02;;;;;;;10.57;8.25;;;21.80;70.40;;;;;;5081470;28;20012;-80
2021/10/04 12:27:28;;;;;;;8.60;6.63;;;21.90;68.20;;;;;;5084252;28;20027;-80
2021/10/04 12:30:04;;;;;;;9.20;6.88;;;21.80;66.60;;;;;;5079403;28;20040;-80
2021/10/04 12:32:38;;;;;;;11.05;6.90;;;21.60;65.40;;;;;;5080372;28;20477;-80
2021/10/04 12:35:07;;;;;;;8.50;6.93;;;21.60;66.60;;;;;;5079845;28;20483;-80
2021/10/04 12:37:36;;;;;;;7.85;6.88;;;21.50;68.70;;;;;;5078117;28;20032;-81
2021/10/04 12:40:44;;;;;;;8.52;6.20;;;21.50;71.40;;;;;;5081068;28;20027;-80
2021/10/04 12:43:26;;;;;;;8.48;7.63;;;21.50;71.00;;;;;;5076662;28;20039;-80